createdAt,value
2016-07-07T14:13:58.349Z,240
2016-07-07T14:18:59.528Z,250
2016-07-07T14:23:59.489Z,270
2016-07-07T14:28:59.450Z,260
2016-07-07T14:33:58.819Z,270
2016-07-07T14:38:58.784Z,245
2016-07-07T14:43:58.148Z,230
2016-07-07T14:48:59.348Z,220
2016-07-07T14:53:58.714Z,290
2016-07-07T14:58:59.274Z,310
2016-07-07T15:03:59.255Z,260
2016-07-07T15:08:59.227Z,220
2016-07-07T15:13:59.201Z,250
2016-07-07T15:18:58.564Z,280
2016-07-07T15:23:59.135Z,285
2016-07-07T15:28:59.131Z,275
2016-07-07T15:33:58.477Z,290
2016-07-07T15:38:58.450Z,290
2016-07-07T15:43:58.424Z,235
2016-07-07T15:48:57.795Z,190
2016-07-07T15:53:58.976Z,175
2016-07-07T15:58:58.940Z,170
2016-07-07T16:03:58.953Z,160
2016-07-07T16:08:58.350Z,155
2016-07-07T16:13:58.964Z,135
2016-07-07T16:18:57.759Z,135
2016-07-07T16:23:58.360Z,140
2016-07-07T16:28:58.378Z,165
2016-07-07T16:33:57.168Z,165
2016-07-07T16:38:57.780Z,160
2016-07-07T16:43:58.373Z,155
2016-07-07T16:48:58.348Z,155
2016-07-07T16:53:58.912Z,130
2016-07-07T16:58:57.682Z,115
2016-07-07T17:03:58.252Z,125
2016-07-07T17:08:58.222Z,140
2016-07-07T17:13:58.792Z,150
2016-07-07T17:18:56.962Z,155
2016-07-07T17:23:58.727Z,150
2016-07-07T17:28:58.717Z,145
2016-07-07T17:33:58.696Z,140
2016-07-07T17:38:58.042Z,125
2016-07-07T17:43:58.598Z,130
2016-07-07T17:48:57.980Z,145
2016-07-07T17:53:57.941Z,120
2016-07-07T17:58:57.935Z,115
2016-07-07T18:03:57.884Z,120
2016-07-07T18:08:57.849Z,100
2016-07-07T18:13:58.436Z,85
2016-07-07T18:18:57.217Z,85
2016-07-07T18:23:57.806Z,75
2016-07-07T18:28:58.427Z,80
2016-07-07T18:33:57.827Z,80
2016-07-07T18:38:57.831Z,80
2016-07-07T18:43:57.240Z,70
2016-07-07T18:48:57.849Z,65
2016-07-07T18:53:57.253Z,55
2016-07-07T18:58:57.868Z,45
2016-07-07T19:03:58.462Z,40
2016-07-07T19:08:58.474Z,30
2016-07-07T19:13:57.876Z,25
2016-07-07T19:18:58.488Z,25
2016-07-07T19:23:57.885Z,20
2016-07-07T19:28:58.487Z,15
2016-07-07T19:33:57.307Z,10
2016-07-07T19:38:57.308Z,10
2016-07-07T19:43:57.916Z,5
2016-07-07T19:48:57.915Z,5
2016-07-07T19:53:58.537Z,0
2016-07-07T19:58:58.531Z,0
2016-07-07T20:03:58.527Z,0
2016-07-07T20:08:57.927Z,0
2016-07-07T20:13:58.524Z,0
2016-07-07T20:18:57.311Z,0
2016-07-07T20:23:57.925Z,0
2016-07-07T20:28:57.924Z,0
2016-07-07T20:33:57.916Z,0
2016-07-07T20:38:57.313Z,0
2016-07-07T20:43:57.926Z,0
2016-07-07T20:48:57.320Z,0
2016-07-07T20:53:57.918Z,0
2016-07-07T20:58:57.316Z,0
2016-07-07T21:03:57.933Z,0
2016-07-07T21:08:58.520Z,0
2016-07-07T21:13:57.313Z,0
2016-07-07T21:18:57.918Z,0
2016-07-07T21:23:57.913Z,0
2016-07-07T21:28:58.518Z,0
2016-07-07T21:33:58.509Z,0
2016-07-07T21:38:58.509Z,0
2016-07-07T21:43:57.908Z,0
2016-07-07T21:48:57.308Z,0
2016-07-07T21:53:57.915Z,0
2016-07-07T21:58:57.301Z,0
2016-07-07T22:03:57.899Z,0
2016-07-07T22:08:57.284Z,0
2016-07-07T22:13:57.887Z,0
2016-07-07T22:18:57.268Z,0
2016-07-07T22:23:57.276Z,0
2016-07-07T22:28:57.264Z,0
2016-07-07T22:33:57.869Z,0
2016-07-07T22:38:57.875Z,0
2016-07-07T22:43:57.257Z,0
2016-07-07T22:48:57.859Z,0
2016-07-07T22:53:58.458Z,0
2016-07-07T22:58:58.445Z,0
2016-07-07T23:03:57.246Z,0
2016-07-07T23:08:58.444Z,0
2016-07-07T23:13:58.428Z,0
2016-07-07T23:18:58.441Z,0
2016-07-07T23:23:57.818Z,0
2016-07-07T23:28:58.417Z,0
2016-07-07T23:33:57.804Z,0
2016-07-07T23:38:57.794Z,0
2016-07-07T23:43:57.190Z,0
2016-07-07T23:48:57.180Z,0
2016-07-07T23:53:57.175Z,0
2016-07-07T23:58:57.779Z,0
